TimeCDT,TemperatureF,Dew PointF,Humidity,Sea Level PressureIn,VisibilityMPH,Wind Direction,Wind SpeedMPH,Gust SpeedMPH,PrecipitationIn,Events,Conditions,WindDirDegrees,DateUTC
12:15 AM,50.0,46.4,87,30.08,10.0,Calm,Calm,-,N/A,,Clear,0,2013-09-29 05:15:00
12:35 AM,48.2,44.6,87,30.08,10.0,SW,3.5,-,N/A,,Clear,230,2013-09-29 05:35:00
12:55 AM,48.2,44.6,87,30.08,10.0,SW,3.5,-,N/A,,Clear,220,2013-09-29 05:55:00
1:15 AM,46.4,44.6,93,30.08,10.0,SW,4.6,-,N/A,,Clear,230,2013-09-29 06:15:00
1:35 AM,46.4,44.6,93,30.08,10.0,SSW,4.6,-,N/A,,Clear,200,2013-09-29 06:35:00
1:55 AM,46.4,44.6,93,30.08,10.0,SW,4.6,-,N/A,,Clear,220,2013-09-29 06:55:00
2:15 AM,46.4,44.6,93,30.08,10.0,SW,3.5,-,N/A,,Clear,230,2013-09-29 07:15:00
2:35 AM,46.4,44.6,93,30.08,10.0,SW,3.5,-,N/A,,Clear,230,2013-09-29 07:35:00
2:55 AM,46.4,44.6,93,30.07,10.0,SSW,3.5,-,N/A,,Clear,210,2013-09-29 07:55:00
3:15 AM,46.4,44.6,93,30.07,10.0,Calm,Calm,-,N/A,,Clear,0,2013-09-29 08:15:00
3:35 AM,46.4,44.6,93,30.07,10.0,WSW,4.6,-,N/A,,Clear,240,2013-09-29 08:35:00
3:55 AM,44.6,44.6,100,30.07,10.0,Calm,Calm,-,N/A,,Clear,0,2013-09-29 08:55:00
4:15 AM,46.4,44.6,93,30.06,10.0,SW,4.6,-,N/A,,Clear,220,2013-09-29 09:15:00
4:35 AM,46.4,44.6,93,30.07,10.0,SW,3.5,-,N/A,,Clear,220,2013-09-29 09:35:00
4:55 AM,46.4,42.8,87,30.07,10.0,SW,4.6,-,N/A,,Clear,220,2013-09-29 09:55:00
5:15 AM,46.4,42.8,87,30.07,10.0,SSW,5.8,-,N/A,,Clear,210,2013-09-29 10:15:00
5:35 AM,46.4,42.8,87,30.07,10.0,SW,3.5,-,N/A,,Clear,220,2013-09-29 10:35:00
5:55 AM,46.4,42.8,87,30.07,10.0,SSW,4.6,-,N/A,,Clear,200,2013-09-29 10:55:00
6:15 AM,46.4,42.8,87,30.07,10.0,SSW,4.6,-,N/A,,Clear,200,2013-09-29 11:15:00
6:35 AM,46.4,42.8,87,30.08,10.0,SW,5.8,-,N/A,,Clear,220,2013-09-29 11:35:00
6:55 AM,46.4,42.8,87,30.08,10.0,SW,5.8,-,N/A,,Clear,220,2013-09-29 11:55:00
7:15 AM,46.4,42.8,87,30.08,10.0,SW,6.9,-,N/A,,Clear,220,2013-09-29 12:15:00
7:35 AM,44.6,42.8,93,30.08,10.0,SSW,4.6,-,N/A,,Clear,210,2013-09-29 12:35:00
7:55 AM,46.4,42.8,87,30.09,10.0,SSW,3.5,-,N/A,,Clear,210,2013-09-29 12:55:00
8:15 AM,48.2,44.6,87,30.09,10.0,SSW,4.6,-,N/A,,Clear,210,2013-09-29 13:15:00
8:35 AM,51.8,46.4,82,30.09,10.0,SW,4.6,-,N/A,,Clear,230,2013-09-29 13:35:00
8:55 AM,53.6,46.4,77,30.09,10.0,SW,5.8,-,N/A,,Clear,220,2013-09-29 13:55:00
9:15 AM,55.4,48.2,77,30.09,10.0,SW,4.6,-,N/A,,Clear,220,2013-09-29 14:15:00
9:35 AM,59.0,48.2,67,30.09,10.0,SSW,5.8,-,N/A,,Clear,200,2013-09-29 14:35:00
9:55 AM,59.0,48.2,67,30.09,10.0,SW,8.1,-,N/A,,Clear,220,2013-09-29 14:55:00
10:15 AM,60.8,50.0,68,30.09,10.0,SW,8.1,-,N/A,,Clear,220,2013-09-29 15:15:00
10:35 AM,64.4,48.2,56,30.09,10.0,SW,10.4,-,N/A,,Clear,220,2013-09-29 15:35:00
10:55 AM,64.4,48.2,56,30.09,10.0,SW,9.2,-,N/A,,Clear,230,2013-09-29 15:55:00
11:15 AM,66.2,48.2,52,30.08,10.0,Variable,6.9,-,N/A,,Clear,0,2013-09-29 16:15:00
11:35 AM,68.0,44.6,43,30.08,10.0,SW,11.5,-,N/A,,Clear,220,2013-09-29 16:35:00
11:55 AM,68.0,44.6,43,30.07,10.0,SW,10.4,-,N/A,,Clear,220,2013-09-29 16:55:00
12:15 PM,69.8,44.6,40,30.07,10.0,SSW,15.0,-,N/A,,Clear,210,2013-09-29 17:15:00
12:35 PM,69.8,42.8,38,30.06,10.0,SSW,12.7,-,N/A,,Clear,200,2013-09-29 17:35:00
12:55 PM,71.6,42.8,35,30.05,10.0,SW,13.8,-,N/A,,Clear,220,2013-09-29 17:55:00
1:15 PM,71.6,42.8,35,30.04,10.0,SSW,12.7,20.7,N/A,,Clear,210,2013-09-29 18:15:00
1:35 PM,71.6,44.6,38,30.02,10.0,South,12.7,-,N/A,,Clear,190,2013-09-29 18:35:00
1:55 PM,71.6,42.8,35,30.01,10.0,South,12.7,19.6,N/A,,Clear,180,2013-09-29 18:55:00
2:15 PM,73.4,42.8,33,30.01,10.0,South,12.7,20.7,N/A,,Clear,190,2013-09-29 19:15:00
2:35 PM,73.4,42.8,33,30.00,10.0,SSW,16.1,-,N/A,,Clear,200,2013-09-29 19:35:00
2:55 PM,73.4,42.8,33,29.99,10.0,South,16.1,-,N/A,,Clear,180,2013-09-29 19:55:00
3:15 PM,73.4,42.8,33,29.98,10.0,South,15.0,21.9,N/A,,Clear,180,2013-09-29 20:15:00
3:35 PM,73.4,42.8,33,29.98,10.0,South,13.8,21.9,N/A,,Clear,180,2013-09-29 20:35:00
3:55 PM,73.4,44.6,36,29.97,10.0,South,15.0,-,N/A,,Clear,190,2013-09-29 20:55:00
4:15 PM,73.4,44.6,36,29.97,10.0,South,16.1,-,N/A,,Clear,190,2013-09-29 21:15:00
4:35 PM,71.6,44.6,38,29.97,10.0,South,16.1,-,N/A,,Clear,190,2013-09-29 21:35:00
4:55 PM,71.6,42.8,35,29.97,10.0,South,16.1,-,N/A,,Clear,180,2013-09-29 21:55:00
5:15 PM,71.6,44.6,38,29.97,10.0,North,-9999.0,-,N/A,,Clear,0,2013-09-29 22:15:00
5:35 PM,71.6,42.8,35,29.97,10.0,South,12.7,21.9,N/A,,Clear,180,2013-09-29 22:35:00
5:55 PM,69.8,44.6,40,29.96,10.0,South,15.0,-,N/A,,Clear,170,2013-09-29 22:55:00
6:15 PM,69.8,44.6,40,29.96,10.0,South,13.8,-,N/A,,Clear,180,2013-09-29 23:15:00
6:35 PM,68.0,44.6,43,29.96,10.0,South,10.4,-,N/A,,Clear,170,2013-09-29 23:35:00
6:55 PM,66.2,46.4,49,29.95,10.0,South,9.2,-,N/A,,Clear,170,2013-09-29 23:55:00
7:15 PM,64.4,46.4,52,29.96,-9999.0,SSE,6.9,-,N/A,,Clear,160,2013-09-30 00:15:00
7:35 PM,60.8,46.4,59,29.95,10.0,SSE,6.9,-,N/A,,Clear,160,2013-09-30 00:35:00
7:55 PM,60.8,46.4,59,29.95,10.0,SSE,8.1,-,N/A,,Clear,160,2013-09-30 00:55:00
8:15 PM,60.8,46.4,59,29.96,10.0,South,8.1,-,N/A,,Clear,170,2013-09-30 01:15:00
8:35 PM,59.0,46.4,63,29.96,10.0,SSE,6.9,-,N/A,,Clear,160,2013-09-30 01:35:00
8:55 PM,57.2,46.4,67,29.96,10.0,SSE,6.9,-,N/A,,Clear,160,2013-09-30 01:55:00
9:15 PM,57.2,46.4,67,29.96,10.0,SSE,6.9,-,N/A,,Clear,160,2013-09-30 02:15:00
9:35 PM,57.2,46.4,67,29.96,10.0,South,8.1,-,N/A,,Clear,170,2013-09-30 02:35:00
9:55 PM,59.0,46.4,63,29.96,10.0,South,9.2,-,N/A,,Clear,170,2013-09-30 02:55:00
10:15 PM,57.2,46.4,67,29.96,10.0,South,8.1,-,N/A,,Clear,170,2013-09-30 03:15:00
10:35 PM,57.2,46.4,67,29.96,10.0,South,9.2,-,N/A,,Clear,170,2013-09-30 03:35:00
10:55 PM,57.2,46.4,67,29.96,10.0,South,9.2,-,N/A,,Clear,170,2013-09-30 03:55:00
11:15 PM,57.2,46.4,67,29.94,10.0,South,10.4,-,N/A,,Clear,170,2013-09-30 04:15:00
11:35 PM,55.4,46.4,72,29.94,10.0,South,9.2,-,N/A,,Clear,170,2013-09-30 04:35:00
11:55 PM,55.4,46.4,72,29.95,10.0,South,9.2,-,N/A,,Clear,180,2013-09-30 04:55:00